Time;durP1;ratioP1;P1;durP2;ratioP2;P2;SDS_P1;SDS_P2;PMS_P1;PMS_P2;Temp;Humidity;BMP_temperature;BMP_pressure;BME280_temperature;BME280_humidity;BME280_pressure;Samples;Min_cycle;Max_cycle;Signal;HPM_P1;HPM_P2
2022/10/07 00:00:42;;;;;;;15.65;2.75;;;9.80;99.90;;;;;;5071481;28;20050;-83
2022/10/07 00:03:28;;;;;;;16.10;2.50;;;9.80;99.90;;;;;;5070867;28;20051;-84
2022/10/07 00:06:13;;;;;;;13.27;2.40;;;9.80;99.90;;;;;;5054955;28;20040;-81
2022/10/07 00:08:41;;;;;;;21.20;2.70;;;9.80;99.90;;;;;;5059661;28;20119;-83
2022/10/07 00:11:10;;;;;;;19.45;2.78;;;9.80;99.90;;;;;;5049228;28;20044;-82
2022/10/07 00:13:40;;;;;;;16.55;2.38;;;9.70;99.90;;;;;;5057444;28;20043;-80
2022/10/07 00:16:09;;;;;;;18.80;2.55;;;9.70;99.90;;;;;;5046221;28;20032;-81
2022/10/07 00:22:16;;;;;;;20.65;3.00;;;9.70;99.90;;;;;;5086204;28;20046;-82
2022/10/07 00:24:42;;;;;;;14.68;2.92;;;9.80;99.90;;;;;;5050667;28;20036;-81
2022/10/07 00:27:10;;;;;;;13.38;2.35;;;9.70;99.90;;;;;;5046233;28;20033;-81
2022/10/07 00:29:36;;;;;;;15.63;2.50;;;9.70;99.90;;;;;;5069017;28;20391;-81
2022/10/07 00:32:02;;;;;;;20.33;3.00;;;9.70;99.90;;;;;;5087443;28;20614;-82
2022/10/07 00:34:27;;;;;;;17.35;2.92;;;9.70;99.90;;;;;;5049862;28;20116;-82
2022/10/07 00:36:53;;;;;;;17.58;2.60;;;9.60;99.90;;;;;;5049260;28;20147;-81
2022/10/07 00:39:19;;;;;;;18.45;2.80;;;9.70;99.90;;;;;;5063488;28;20074;-82
2022/10/07 00:41:49;;;;;;;16.52;2.78;;;9.70;99.90;;;;;;5065173;28;20032;-81
2022/10/07 00:44:30;;;;;;;15.05;2.20;;;9.60;99.90;;;;;;5033713;28;20467;-81
2022/10/07 00:47:19;;;;;;;12.38;2.13;;;9.60;99.90;;;;;;5049103;28;20044;-82
2022/10/07 00:50:02;;;;;;;11.57;2.22;;;9.50;99.90;;;;;;5057819;28;20197;-82
2022/10/07 00:52:30;;;;;;;19.02;2.55;;;9.50;99.90;;;;;;5050335;28;20064;-82
2022/10/07 00:54:59;;;;;;;17.10;2.63;;;9.50;99.90;;;;;;5065698;28;20448;-81
2022/10/07 00:57:28;;;;;;;18.95;2.92;;;9.50;99.90;;;;;;5053813;28;20045;-81
2022/10/07 00:59:57;;;;;;;15.43;2.53;;;9.50;99.90;;;;;;5067395;28;20045;-82
2022/10/07 01:02:25;;;;;;;17.55;2.30;;;9.50;99.90;;;;;;5048890;28;20044;-80
2022/10/07 01:05:28;;;;;;;17.35;2.75;;;9.40;99.90;;;;;;5070714;28;20127;-79
2022/10/07 01:07:54;;;;;;;14.23;2.55;;;9.40;99.90;;;;;;5046540;28;20475;-83
2022/10/07 01:10:21;;;;;;;18.55;2.70;;;9.40;99.90;;;;;;5054297;28;20048;-85
2022/10/07 01:12:56;;;;;;;15.57;2.72;;;9.40;99.90;;;;;;5051820;28;20040;-84
2022/10/07 01:15:34;;;;;;;18.85;3.03;;;9.30;99.90;;;;;;5050607;28;20043;-81
2022/10/07 01:18:17;;;;;;;13.95;2.83;;;9.30;99.90;;;;;;5070011;28;20041;-83
2022/10/07 01:21:03;;;;;;;17.95;2.95;;;9.40;99.90;;;;;;5067482;28;20076;-85
2022/10/07 01:23:37;;;;;;;13.23;2.92;;;9.30;99.90;;;;;;5069419;28;20052;-85
2022/10/07 01:26:26;;;;;;;16.75;2.38;;;9.30;99.90;;;;;;5052905;28;20075;-84
2022/10/07 01:29:01;;;;;;;14.65;2.92;;;9.30;99.90;;;;;;5053555;28;20140;-81
2022/10/07 01:31:33;;;;;;;;;;;9.30;99.90;;;;;;5066736;28;20044;-84
2022/10/07 01:34:00;;;;;;;15.60;2.80;;;9.30;99.90;;;;;;5080001;28;20248;-80
2022/10/07 01:36:26;;;;;;;11.20;2.58;;;9.20;99.90;;;;;;5052791;28;20051;-85
2022/10/07 01:39:01;;;;;;;14.70;2.95;;;9.20;99.90;;;;;;5052322;28;20036;-84
2022/10/07 01:41:29;;;;;;;16.67;2.63;;;9.20;99.90;;;;;;5050398;28;20510;-82
2022/10/07 01:43:56;;;;;;;15.10;2.95;;;9.20;99.90;;;;;;5072866;28;20047;-82
2022/10/07 01:46:25;;;;;;;15.68;2.60;;;9.20;99.90;;;;;;5053945;28;20036;-81
2022/10/07 01:48:51;;;;;;;14.70;2.60;;;9.00;99.90;;;;;;5055364;28;20107;-82
2022/10/07 01:51:20;;;;;;;13.40;3.35;;;9.00;99.90;;;;;;5069629;28;20054;-82
2022/10/07 01:53:51;;;;;;;17.60;3.28;;;8.90;99.90;;;;;;5050443;28;20115;-85
2022/10/07 01:56:50;;;;;;;13.40;2.70;;;8.90;99.90;;;;;;5065134;28;20598;-82
2022/10/07 01:59:28;;;;;;;14.27;2.85;;;8.90;99.90;;;;;;4979656;28;20057;-82
2022/10/07 02:02:03;;;;;;;13.50;2.67;;;8.70;99.90;;;;;;4977280;28;20073;-83
2022/10/07 02:04:32;;;;;;;13.85;3.08;;;8.70;99.90;;;;;;4986066;28;20045;-84
2022/10/07 02:07:04;;;;;;;21.00;3.40;;;8.80;99.90;;;;;;4974437;28;20089;-84
2022/10/07 02:09:48;;;;;;;14.15;2.97;;;8.70;99.90;;;;;;4977062;28;20054;-83
2022/10/07 02:12:21;;;;;;;21.08;3.30;;;8.80;99.90;;;;;;4976135;28;20038;-82
2022/10/07 02:15:04;;;;;;;18.33;2.78;;;8.70;99.90;;;;;;4977877;28;20043;-85
2022/10/07 02:17:34;;;;;;;21.25;2.92;;;8.80;99.90;;;;;;4979761;28;20042;-84
2022/10/07 02:20:03;;;;;;;15.73;3.05;;;8.80;99.90;;;;;;4976380;28;20043;-81
2022/10/07 02:22:32;;;;;;;16.35;3.35;;;8.80;99.90;;;;;;4976757;28;20074;-82
2022/10/07 02:24:59;;;;;;;21.50;3.50;;;8.80;99.90;;;;;;4974789;28;20104;-82
2022/10/07 02:27:31;;;;;;;20.83;3.65;;;8.80;99.90;;;;;;4981675;28;20033;-84
2022/10/07 02:30:07;;;;;;;18.98;2.97;;;8.80;99.90;;;;;;4989566;28;20502;-82
2022/10/07 02:32:35;;;;;;;21.20;3.15;;;8.80;99.90;;;;;;4966265;28;20034;-83
2022/10/07 02:39:09;;;;;;;19.90;3.40;;;8.80;99.90;;;;;;5075579;28;20106;-81
2022/10/07 02:42:08;;;;;;;13.50;3.25;;;8.70;99.90;;;;;;5041849;28;20055;-82
2022/10/07 02:44:50;;;;;;;15.95;3.03;;;8.70;99.90;;;;;;5056615;28;20055;-83
2022/10/07 02:47:39;;;;;;;21.08;3.85;;;8.90;99.90;;;;;;5033177;28;20052;-81
2022/10/07 02:50:10;;;;;;;22.25;3.70;;;8.60;99.90;;;;;;5050162;28;20041;-84
2022/10/07 02:52:37;;;;;;;11.20;2.83;;;8.60;99.90;;;;;;5051893;28;20040;-86
2022/10/07 02:55:06;;;;;;;18.63;3.22;;;8.50;99.90;;;;;;5031442;28;20074;-81
2022/10/07 02:57:39;;;;;;;24.40;3.95;;;8.50;99.90;;;;;;5034819;28;20075;-83
2022/10/07 03:00:07;;;;;;;14.10;3.45;;;8.50;99.90;;;;;;5065702;28;20045;-81
2022/10/07 03:02:39;;;;;;;22.05;3.95;;;8.40;99.90;;;;;;5035197;28;20105;-84
2022/10/07 03:05:08;;;;;;;14.85;3.53;;;8.40;99.90;;;;;;5033264;28;20047;-84
2022/10/07 03:07:34;;;;;;;10.77;3.58;;;8.30;99.90;;;;;;5050568;28;20032;-83
2022/10/07 03:10:01;;;;;;;15.90;3.72;;;8.30;99.90;;;;;;5034145;28;20072;-84
2022/10/07 03:12:27;;;;;;;13.40;3.47;;;8.30;99.90;;;;;;5033783;28;20048;-84
2022/10/07 03:14:53;;;;;;;13.98;3.72;;;8.20;99.90;;;;;;5045822;28;20171;-83
2022/10/07 03:17:19;;;;;;;18.55;4.10;;;8.20;99.90;;;;;;5032801;28;20189;-85
2022/10/07 03:19:44;;;;;;;17.45;3.60;;;8.40;99.90;;;;;;5051747;28;20047;-83
2022/10/07 03:22:11;;;;;;;14.55;4.03;;;8.40;99.90;;;;;;5047085;28;20043;-84
2022/10/07 03:24:37;;;;;;;17.27;3.92;;;8.10;99.90;;;;;;5052936;28;20089;-82
2022/10/07 03:27:06;;;;;;;16.77;3.60;;;8.30;99.90;;;;;;5048175;28;20037;-83
2022/10/07 03:29:33;;;;;;;20.05;4.10;;;8.20;99.90;;;;;;5053222;28;20072;-83
2022/10/07 03:32:00;;;;;;;19.42;3.97;;;8.10;99.90;;;;;;5033771;28;20055;-82
2022/10/07 03:34:27;;;;;;;20.25;3.63;;;8.10;99.90;;;;;;5048930;28;20127;-84
2022/10/07 03:36:53;;;;;;;21.05;4.38;;;8.00;99.90;;;;;;5086722;28;20055;-82
2022/10/07 03:39:19;;;;;;;16.38;3.83;;;8.10;99.90;;;;;;5066056;28;20391;-82
2022/10/07 03:41:47;;;;;;;19.42;3.63;;;8.10;99.90;;;;;;5086407;28;20044;-81
2022/10/07 03:44:13;;;;;;;22.60;4.10;;;8.10;99.90;;;;;;5054593;28;20459;-82
2022/10/07 03:46:39;;;;;;;18.35;4.00;;;8.40;99.90;;;;;;5052758;28;20047;-81
2022/10/07 03:49:05;;;;;;;13.57;3.55;;;8.10;99.90;;;;;;5050588;28;20046;-84
2022/10/07 03:51:31;;;;;;;16.63;4.13;;;8.10;99.90;;;;;;5083883;28;20032;-82
2022/10/07 03:53:58;;;;;;;17.20;3.50;;;8.10;99.90;;;;;;5048039;28;20036;-86
2022/10/07 03:56:24;;;;;;;18.55;3.45;;;8.10;99.90;;;;;;5067390;28;20057;-82
2022/10/07 03:58:50;;;;;;;18.67;4.03;;;8.10;99.90;;;;;;5052133;28;20138;-85
2022/10/07 04:01:16;;;;;;;16.30;3.90;;;8.10;99.90;;;;;;5051489;28;20040;-83
2022/10/07 04:03:42;;;;;;;21.00;4.22;;;8.10;99.90;;;;;;5054592;28;20147;-83
2022/10/07 04:06:08;;;;;;;13.88;3.80;;;8.10;99.90;;;;;;5052837;28;20097;-83
2022/10/07 04:08:34;;;;;;;21.00;4.35;;;8.10;99.90;;;;;;5048943;28;20126;-81
2022/10/07 04:11:00;;;;;;;19.98;4.10;;;8.10;99.90;;;;;;5069603;28;20039;-83
2022/10/07 04:13:26;;;;;;;18.52;4.22;;;8.00;99.90;;;;;;5083990;28;20032;-81
2022/10/07 04:15:52;;;;;;;28.10;4.63;;;8.10;99.90;;;;;;5067178;28;20032;-87
2022/10/07 04:18:18;;;;;;;21.65;4.53;;;8.00;99.90;;;;;;5051932;28;20039;-82
2022/10/07 04:20:43;;;;;;;17.38;4.22;;;8.00;99.90;;;;;;5070128;28;20051;-81
2022/10/07 04:23:09;;;;;;;27.42;4.47;;;8.10;99.90;;;;;;5051798;28;20462;-81
2022/10/07 04:25:37;;;;;;;28.10;4.55;;;8.10;99.90;;;;;;5071639;28;20072;-84
2022/10/07 04:28:06;;;;;;;19.05;4.60;;;8.20;99.90;;;;;;5050920;28;20052;-81
2022/10/07 04:30:38;;;;;;;26.15;4.88;;;8.20;99.90;;;;;;5070810;28;20115;-82
2022/10/07 04:33:04;;;;;;;17.55;4.32;;;8.30;99.90;;;;;;5048472;28;20077;-84
2022/10/07 04:35:30;;;;;;;27.92;4.97;;;8.40;99.90;;;;;;5052606;28;20389;-86
2022/10/07 04:37:56;;;;;;;25.92;4.55;;;8.20;99.90;;;;;;5064262;28;21773;-85
2022/10/07 04:40:23;;;;;;;23.17;4.40;;;8.50;99.90;;;;;;5050678;28;20117;-86
2022/10/07 04:45:35;;;;;;;23.13;4.32;;;8.30;99.90;;;;;;5070392;28;20044;-84
2022/10/07 04:48:02;;;;;;;24.60;4.55;;;8.50;99.90;;;;;;5054593;28;20063;-83
2022/10/07 04:50:28;;;;;;;18.25;4.40;;;8.50;99.90;;;;;;5073112;28;20045;-84
2022/10/07 04:52:54;;;;;;;14.70;4.18;;;8.40;99.90;;;;;;5084756;28;20495;-86
2022/10/07 04:55:20;;;;;;;26.25;4.63;;;8.40;99.90;;;;;;5068411;28;20055;-81
2022/10/07 04:57:45;;;;;;;27.63;4.72;;;8.40;99.90;;;;;;5074492;28;20035;-86
2022/10/07 05:00:12;;;;;;;21.92;4.82;;;8.30;99.90;;;;;;5070303;28;20479;-86
2022/10/07 05:02:37;;;;;;;23.98;4.30;;;8.40;99.90;;;;;;5055543;28;20028;-87
2022/10/07 05:05:03;;;;;;;23.98;4.75;;;8.40;99.90;;;;;;5069928;28;20051;-85
2022/10/07 05:07:31;;;;;;;25.73;4.22;;;8.40;99.90;;;;;;5069166;28;20055;-84
2022/10/07 05:09:57;;;;;;;24.35;4.53;;;8.50;99.90;;;;;;5057267;28;20040;-83
2022/10/07 05:12:25;;;;;;;18.58;4.60;;;8.50;99.90;;;;;;5076218;28;20113;-84
2022/10/07 05:14:52;;;;;;;23.73;5.03;;;8.50;99.90;;;;;;5054411;28;20033;-81
2022/10/07 05:17:19;;;;;;;22.88;4.68;;;8.60;99.90;;;;;;5083103;28;20074;-85
2022/10/07 05:19:44;;;;;;;27.25;4.93;;;8.50;99.90;;;;;;5073173;28;20075;-84
2022/10/07 05:22:10;;;;;;;20.90;4.57;;;8.50;99.90;;;;;;5086678;28;20050;-84
2022/10/07 05:24:35;;;;;;;26.13;5.30;;;8.70;99.90;;;;;;5053426;28;20067;-83
2022/10/07 05:27:01;;;;;;;28.58;5.10;;;8.40;99.90;;;;;;5070836;28;20024;-86
2022/10/07 05:29:27;;;;;;;26.25;4.72;;;8.50;99.90;;;;;;5073590;28;20130;-85
2022/10/07 05:31:53;;;;;;;28.77;4.97;;;8.50;99.90;;;;;;5055992;28;20123;-83
2022/10/07 05:34:19;;;;;;;24.33;4.97;;;8.70;99.90;;;;;;5053666;28;20063;-83
2022/10/07 05:36:46;;;;;;;25.20;4.40;;;8.60;99.90;;;;;;5068638;28;20050;-81
2022/10/07 05:39:13;;;;;;;23.67;4.93;;;8.60;99.90;;;;;;5048937;28;20043;-83
2022/10/07 05:41:39;;;;;;;21.02;4.65;;;8.70;99.90;;;;;;5071760;28;21524;-80
2022/10/07 05:44:04;;;;;;;27.05;5.38;;;8.80;99.90;;;;;;5060750;28;20048;-81
2022/10/07 05:46:30;;;;;;;21.80;5.28;;;8.60;99.90;;;;;;5069523;28;20493;-83
2022/10/07 05:48:56;;;;;;;27.08;5.10;;;8.70;99.90;;;;;;5071555;28;20032;-83
2022/10/07 05:51:23;;;;;;;28.05;4.97;;;9.00;99.90;;;;;;5050464;28;20044;-83
2022/10/07 05:53:54;;;;;;;26.02;5.20;;;9.10;99.90;;;;;;5070251;28;20152;-83
2022/10/07 05:56:23;;;;;;;27.33;5.05;;;8.80;99.90;;;;;;5066938;28;20043;-83
2022/10/07 05:58:50;;;;;;;33.00;6.22;;;9.30;99.90;;;;;;5068266;28;20478;-83
2022/10/07 06:01:18;;;;;;;33.55;5.90;;;8.90;99.90;;;;;;5047611;28;20043;-83
2022/10/07 06:03:52;;;;;;;29.48;5.75;;;9.00;99.90;;;;;;5051845;28;20066;-82
2022/10/07 06:06:18;;;;;;;29.20;5.93;;;9.00;99.90;;;;;;5052236;28;20059;-84
2022/10/07 06:08:45;;;;;;;26.83;5.65;;;9.10;99.90;;;;;;5074936;28;20428;-84
2022/10/07 06:13:58;;;;;;;25.20;5.45;;;9.20;99.90;;;;;;5068023;28;20043;-82
2022/10/07 06:16:24;;;;;;;33.67;5.28;;;9.20;99.90;;;;;;5071639;28;20085;-82
2022/10/07 06:18:51;;;;;;;28.95;5.50;;;9.30;99.90;;;;;;5061211;28;20068;-84
2022/10/07 06:21:18;;;;;;;36.55;6.20;;;9.30;99.90;;;;;;5064613;28;20051;-80
2022/10/07 06:23:48;;;;;;;28.23;6.35;;;9.40;99.90;;;;;;5092648;28;20067;-82
2022/10/07 06:26:14;;;;;;;22.83;5.28;;;9.50;99.90;;;;;;5071326;28;20107;-82
2022/10/07 06:28:40;;;;;;;29.08;5.35;;;9.40;99.90;;;;;;5071768;28;20539;-83
2022/10/07 06:31:14;;;;;;;30.27;5.70;;;9.50;99.90;;;;;;5047454;28;20141;-81
2022/10/07 06:33:40;;;;;;;31.58;5.35;;;9.50;99.90;;;;;;5059581;28;21066;-82
2022/10/07 06:36:12;;;;;;;26.58;5.20;;;9.50;99.90;;;;;;5051304;28;20088;-81
2022/10/07 06:38:46;;;;;;;29.48;5.95;;;9.60;99.90;;;;;;5002028;28;20586;-85
2022/10/07 06:41:14;;;;;;;25.10;5.72;;;9.60;99.90;;;;;;5032093;28;20111;-83
2022/10/07 06:43:40;;;;;;;26.90;5.30;;;9.70;99.90;;;;;;5066995;28;20448;-81
2022/10/07 06:46:09;;;;;;;23.45;5.40;;;9.70;99.90;;;;;;5047617;28;20124;-85
2022/10/07 06:48:35;;;;;;;27.20;5.00;;;9.70;99.90;;;;;;5046609;28;20043;-83
2022/10/07 06:51:02;;;;;;;27.85;5.28;;;9.80;99.90;;;;;;5032517;28;20089;-86
2022/10/07 06:53:32;;;;;;;24.30;5.07;;;9.80;99.90;;;;;;5033896;28;20040;-82
2022/10/07 06:56:05;;;;;;;30.83;5.50;;;9.90;99.90;;;;;;5029935;28;20049;-84
2022/10/07 06:58:31;;;;;;;30.85;5.68;;;10.00;99.90;;;;;;5050905;28;20053;-81
2022/10/07 07:01:01;;;;;;;30.65;5.05;;;10.00;99.90;;;;;;5026555;28;20055;-82
2022/10/07 07:03:27;;;;;;;25.55;5.00;;;10.10;99.90;;;;;;5049654;28;20056;-82
2022/10/07 07:09:21;;;;;;;23.23;5.68;;;10.10;99.90;;;;;;5052628;28;20052;-88
2022/10/07 07:11:48;;;;;;;33.50;5.30;;;10.20;99.90;;;;;;5033934;28;20045;-88
2022/10/07 07:14:14;;;;;;;22.52;5.00;;;10.30;99.90;;;;;;5049367;28;20041;-85
2022/10/07 07:16:40;;;;;;;30.38;5.45;;;10.30;99.90;;;;;;5036938;28;20131;-83
2022/10/07 07:19:09;;;;;;;21.13;5.30;;;10.30;99.90;;;;;;5033507;28;20048;-84
2022/10/07 07:21:37;;;;;;;20.67;5.10;;;10.50;99.90;;;;;;5035230;28;20040;-87
2022/10/07 07:24:03;;;;;;;28.95;5.40;;;10.50;99.90;;;;;;5036347;28;20126;-83
2022/10/07 07:26:29;;;;;;;28.15;5.70;;;10.50;99.90;;;;;;5051903;28;20033;-83
2022/10/07 07:28:57;;;;;;;24.02;5.45;;;10.50;99.90;;;;;;5034053;28;20110;-85
2022/10/07 07:31:24;;;;;;;27.15;5.63;;;10.60;99.90;;;;;;5029024;28;20480;-84
2022/10/07 07:33:53;;;;;;;24.40;5.20;;;10.70;99.90;;;;;;5050069;28;20162;-83
2022/10/07 07:36:22;;;;;;;23.40;5.43;;;10.70;99.90;;;;;;5036029;28;20045;-82
2022/10/07 07:38:52;;;;;;;28.73;5.43;;;10.80;99.90;;;;;;5034858;28;20156;-81
2022/10/07 07:41:20;;;;;;;23.20;5.07;;;10.80;99.90;;;;;;5053938;28;20051;-83
2022/10/07 07:43:54;;;;;;;26.35;4.72;;;10.90;99.90;;;;;;5058017;28;20571;-82
2022/10/07 07:46:22;;;;;;;22.67;5.10;;;10.90;99.90;;;;;;5023073;28;20045;-83
2022/10/07 07:48:50;;;;;;;26.08;5.20;;;11.00;99.90;;;;;;5052436;28;20033;-84
2022/10/07 07:51:17;;;;;;;20.83;4.85;;;11.10;99.90;;;;;;5032820;28;20053;-83
2022/10/07 07:53:43;;;;;;;22.05;5.15;;;11.10;99.90;;;;;;5050038;28;20049;-82
2022/10/07 07:56:11;;;;;;;24.15;5.20;;;11.20;99.90;;;;;;5037764;28;20032;-83
2022/10/07 07:58:37;;;;;;;21.20;4.80;;;11.20;99.90;;;;;;5028730;28;20113;-82
2022/10/07 08:01:16;;;;;;;21.45;5.07;;;11.40;99.90;;;;;;5070512;28;20082;-84
2022/10/07 08:03:45;;;;;;;19.48;4.70;;;11.40;99.90;;;;;;5058635;28;20059;-84
2022/10/07 08:06:48;;;;;;;27.10;4.95;;;11.50;99.90;;;;;;5038562;28;20079;-83
2022/10/07 08:09:14;;;;;;;24.05;4.80;;;11.50;99.90;;;;;;5039650;28;20459;-82
2022/10/07 08:11:44;;;;;;;20.48;4.32;;;11.60;99.90;;;;;;5080115;28;20429;-81
2022/10/07 08:14:11;;;;;;;30.08;5.32;;;11.60;99.90;;;;;;5049803;28;20048;-84
2022/10/07 08:16:37;;;;;;;25.88;4.93;;;11.70;99.90;;;;;;5067992;28;20047;-83
2022/10/07 08:19:03;;;;;;;24.27;5.07;;;11.80;99.90;;;;;;5033715;28;20052;-82
2022/10/07 08:21:32;;;;;;;27.13;4.95;;;11.80;99.90;;;;;;5069299;28;20123;-81
2022/10/07 08:23:59;;;;;;;20.10;4.60;;;11.80;99.90;;;;;;5074799;28;20071;-83
2022/10/07 08:26:27;;;;;;;30.50;4.85;;;11.80;99.90;;;;;;5039921;28;20048;-84
2022/10/07 08:28:54;;;;;;;30.80;5.05;;;11.90;99.90;;;;;;5048293;28;20442;-80
2022/10/07 08:31:20;;;;;;;25.85;4.28;;;12.00;99.90;;;;;;5070276;28;20087;-82
2022/10/07 08:33:47;;;;;;;24.98;4.05;;;12.00;99.90;;;;;;5038022;28;20036;-84
2022/10/07 08:36:18;;;;;;;26.60;4.82;;;12.10;99.90;;;;;;5036043;28;20048;-83
2022/10/07 08:38:45;;;;;;;26.35;4.40;;;12.30;99.90;;;;;;5050936;28;20044;-82
2022/10/07 08:41:31;;;;;;;24.33;4.10;;;12.20;99.90;;;;;;5034722;28;20040;-83
2022/10/07 08:44:05;;;;;;;25.20;4.55;;;12.30;99.90;;;;;;5050319;28;20126;-83
2022/10/07 08:46:34;;;;;;;27.05;4.15;;;12.30;99.90;;;;;;5073538;28;20043;-85
2022/10/07 08:49:14;;;;;;;23.50;4.10;;;12.40;99.90;;;;;;5050923;28;20040;-82
2022/10/07 08:51:49;;;;;;;19.73;4.07;;;12.40;99.90;;;;;;5059820;28;20045;-82
2022/10/07 08:54:18;;;;;;;21.27;4.70;;;12.50;99.90;;;;;;5061463;28;20487;-83
2022/10/07 08:56:46;;;;;;;18.88;4.38;;;12.40;99.90;;;;;;5033692;28;20126;-83
2022/10/07 08:59:24;;;;;;;23.63;4.40;;;12.60;99.90;;;;;;5051485;28;20049;-81
2022/10/07 09:02:05;;;;;;;16.30;4.05;;;12.60;99.90;;;;;;5071282;28;20048;-82
2022/10/07 09:04:52;;;;;;;21.02;5.22;;;12.70;99.90;;;;;;5068729;28;20071;-82
2022/10/07 09:07:36;;;;;;;21.10;4.15;;;12.80;99.90;;;;;;5050496;28;20056;-83
2022/10/07 09:10:08;;;;;;;29.08;4.75;;;12.80;99.90;;;;;;5023761;28;20045;-83
2022/10/07 09:12:45;;;;;;;21.38;4.10;;;12.80;99.90;;;;;;5036191;28;20082;-84
2022/10/07 09:15:26;;;;;;;23.08;4.10;;;12.90;99.90;;;;;;5052145;28;20116;-84
2022/10/07 09:18:09;;;;;;;27.02;4.35;;;13.00;99.90;;;;;;5050905;28;20070;-83
2022/10/07 09:20:41;;;;;;;23.10;4.57;;;13.10;99.90;;;;;;5033334;28;20076;-81
2022/10/07 09:23:14;;;;;;;16.35;4.00;;;13.20;99.90;;;;;;5036088;28;20047;-81
2022/10/07 09:25:40;;;;;;;25.48;4.60;;;13.30;99.90;;;;;;5042701;28;20056;-84
2022/10/07 09:28:12;;;;;;;22.58;4.32;;;13.40;99.90;;;;;;5057299;28;20040;-82
2022/10/07 09:30:38;;;;;;;23.33;4.15;;;13.40;99.90;;;;;;5056003;28;20446;-83
2022/10/07 09:33:13;;;;;;;22.20;4.13;;;13.60;99.90;;;;;;5037733;28;20179;-82
2022/10/07 09:35:39;;;;;;;;;;;13.70;99.90;;;;;;5059267;28;20318;-82
2022/10/07 09:38:09;;;;;;;26.23;4.25;;;13.80;99.90;;;;;;5048621;28;19931;-83
2022/10/07 09:43:30;;;;;;;21.58;4.20;;;14.00;99.90;;;;;;5071114;28;20052;-82
2022/10/07 09:45:57;;;;;;;23.23;3.60;;;14.10;99.90;;;;;;5068373;28;20504;-78
2022/10/07 09:48:28;;;;;;;21.65;3.95;;;14.10;99.90;;;;;;5069167;28;21591;-79
2022/10/07 09:51:50;;;;;;;30.70;4.90;;;14.10;99.90;;;;;;5090523;28;20056;-80
2022/10/07 09:54:20;;;;;;;23.67;3.85;;;14.30;99.90;;;;;;5068997;28;20503;-81
2022/10/07 09:56:46;;;;;;;21.63;4.28;;;14.30;99.90;;;;;;5056072;28;20044;-84
2022/10/07 09:59:22;;;;;;;20.73;4.07;;;14.50;99.90;;;;;;5053490;28;20047;-82
2022/10/07 10:02:01;;;;;;;21.45;4.22;;;14.50;99.90;;;;;;5067866;28;20491;-82
2022/10/07 10:04:32;;;;;;;22.90;3.80;;;14.60;99.90;;;;;;5087200;28;20044;-81
2022/10/07 10:07:05;;;;;;;21.13;4.00;;;14.70;99.90;;;;;;5053123;28;20064;-79
2022/10/07 10:09:33;;;;;;;24.33;3.88;;;14.80;99.90;;;;;;5075764;28;20406;-79
2022/10/07 10:12:12;;;;;;;22.77;4.03;;;14.80;99.90;;;;;;5054569;28;20109;-81
2022/10/07 10:14:49;;;;;;;23.83;3.90;;;14.80;99.90;;;;;;5076472;28;20037;-79
2022/10/07 10:17:34;;;;;;;21.65;3.35;;;14.90;99.90;;;;;;5055485;28;20044;-83
2022/10/07 10:20:18;;;;;;;;;;;14.90;99.90;;;;;;5068140;28;20063;-83
2022/10/07 10:22:44;;;;;;;20.88;4.28;;;14.90;99.90;;;;;;5054973;28;19975;-83
2022/10/07 10:28:17;;;;;;;18.65;3.40;;;15.00;99.90;;;;;;5067010;28;20425;-86
2022/10/07 10:31:02;;;;;;;26.55;3.70;;;15.10;99.90;;;;;;5070726;28;20181;-84
2022/10/07 10:33:45;;;;;;;19.40;3.25;;;15.20;99.90;;;;;;5086231;28;20051;-87
2022/10/07 10:36:21;;;;;;;21.95;3.95;;;15.30;99.90;;;;;;5029326;28;20037;-83
2022/10/07 10:39:02;;;;;;;21.75;3.50;;;15.50;99.90;;;;;;5048529;28;20063;-83
2022/10/07 10:41:38;;;;;;;15.57;2.88;;;15.40;99.90;;;;;;5049311;28;20076;-83
2022/10/07 10:44:09;;;;;;;25.02;3.97;;;15.40;99.90;;;;;;5048215;28;20088;-82
2022/10/07 10:46:57;;;;;;;24.83;3.80;;;15.50;99.90;;;;;;5030400;28;20056;-81
2022/10/07 10:49:32;;;;;;;23.60;3.78;;;15.50;99.90;;;;;;5045070;28;20055;-83
2022/10/07 10:51:58;;;;;;;20.83;3.28;;;15.60;99.90;;;;;;5050532;28;20044;-87
2022/10/07 10:54:38;;;;;;;19.75;4.00;;;15.60;99.90;;;;;;5031614;28;20502;-84
2022/10/07 10:57:13;;;;;;;14.70;3.20;;;15.70;99.90;;;;;;5042543;28;20032;-81
2022/10/07 10:59:39;;;;;;;;;;;15.90;99.90;;;;;;5027235;28;20122;-80
2022/10/07 11:02:36;;;;;;;18.33;3.00;;;15.90;99.90;;;;;;5028913;28;19917;-82
2022/10/07 11:05:12;;;;;;;21.60;3.22;;;16.20;99.90;;;;;;5030104;28;20554;-83
2022/10/07 11:07:49;;;;;;;13.93;2.83;;;16.30;99.90;;;;;;5042857;28;20060;-82
2022/10/07 11:10:41;;;;;;;19.33;2.97;;;16.30;99.90;;;;;;5024147;28;20708;-81
2022/10/07 11:13:18;;;;;;;17.13;3.40;;;16.40;99.90;;;;;;4950457;28;20046;-84
2022/10/07 11:15:50;;;;;;;20.85;2.95;;;16.30;99.90;;;;;;4958420;28;20121;-87
2022/10/07 11:18:29;;;;;;;23.27;3.25;;;16.40;99.90;;;;;;4941336;28;20061;-82
2022/10/07 11:20:58;;;;;;;16.80;3.10;;;16.60;99.90;;;;;;4978057;28;20051;-82
2022/10/07 11:24:03;;;;;;;19.90;3.45;;;16.60;99.90;;;;;;4971347;28;20160;-86
2022/10/07 11:26:40;;;;;;;14.05;2.75;;;16.70;99.90;;;;;;4974311;28;20379;-85
2022/10/07 11:29:24;;;;;;;19.48;3.28;;;16.80;99.90;;;;;;4946904;28;20073;-82
2022/10/07 11:32:00;;;;;;;20.77;2.92;;;16.80;99.90;;;;;;4971416;28;20061;-82
2022/10/07 11:34:42;;;;;;;18.13;2.72;;;16.90;99.90;;;;;;4980395;28;20054;-83
2022/10/07 11:37:29;;;;;;;17.90;2.72;;;16.90;99.90;;;;;;4954518;28;20054;-86
2022/10/07 11:39:55;;;;;;;17.70;3.03;;;16.90;99.90;;;;;;4968942;28;20506;-86
2022/10/07 11:42:32;;;;;;;16.63;2.63;;;16.90;99.90;;;;;;4971079;28;20042;-83
2022/10/07 11:45:01;;;;;;;18.58;3.20;;;16.80;99.90;;;;;;4971360;28;20042;-85
2022/10/07 11:47:40;;;;;;;16.38;2.83;;;16.80;99.90;;;;;;4988725;28;20074;-84
2022/10/07 11:50:17;;;;;;;17.55;2.70;;;16.80;99.90;;;;;;5022645;28;20088;-87
2022/10/07 11:52:46;;;;;;;22.80;2.95;;;16.80;99.90;;;;;;5056319;28;20040;-84
2022/10/07 11:55:33;;;;;;;12.93;2.60;;;16.80;99.90;;;;;;5052815;28;20052;-83
2022/10/07 11:58:02;;;;;;;19.02;3.38;;;16.80;99.90;;;;;;5039801;28;20060;-84
2022/10/07 12:00:32;;;;;;;22.42;3.10;;;17.00;99.90;;;;;;5055559;28;20044;-85
2022/10/07 12:03:16;;;;;;;17.70;3.05;;;16.90;99.90;;;;;;5068597;28;20055;-86
2022/10/07 12:05:48;;;;;;;16.70;3.10;;;17.00;99.90;;;;;;5049015;28;20075;-86
2022/10/07 12:08:22;;;;;;;12.52;2.50;;;16.80;99.90;;;;;;5067066;28;20043;-84
2022/10/07 12:10:55;;;;;;;;;;;16.70;99.90;;;;;;5065552;28;20044;-87
2022/10/07 12:13:20;;;;;;;18.70;2.97;;;16.80;99.90;;;;;;5049111;28;20284;-84
2022/10/07 12:15:47;;;;;;;13.82;3.47;;;16.90;99.90;;;;;;5065432;28;20124;-84
2022/10/07 12:18:33;;;;;;;16.88;3.03;;;17.10;99.90;;;;;;5065624;28;20368;-86
2022/10/07 12:21:18;;;;;;;14.32;3.00;;;17.00;99.90;;;;;;4968054;28;20833;-83
2022/10/07 12:23:44;;;;;;;23.52;3.33;;;17.10;99.90;;;;;;4973927;28;20050;-86
2022/10/07 12:26:31;;;;;;;16.35;2.75;;;17.10;99.90;;;;;;4985897;28;20455;-84
2022/10/07 12:28:57;;;;;;;21.77;3.50;;;16.90;99.90;;;;;;4984778;28;20046;-81
2022/10/07 12:31:23;;;;;;;17.00;2.85;;;17.10;99.90;;;;;;4970916;28;20050;-85
2022/10/07 12:34:04;;;;;;;14.00;2.80;;;17.20;99.90;;;;;;4970137;28;20486;-85
2022/10/07 12:36:30;;;;;;;20.02;3.00;;;17.10;99.90;;;;;;4964870;28;20062;-86
2022/10/07 12:38:58;;;;;;;19.85;3.22;;;17.10;99.90;;;;;;4972756;28;20050;-85
2022/10/07 12:41:34;;;;;;;15.57;2.97;;;17.00;99.90;;;;;;4968700;28;20058;-88
2022/10/07 12:44:09;;;;;;;19.05;2.80;;;17.00;99.90;;;;;;4951140;28;20136;-87
2022/10/07 12:47:04;;;;;;;20.55;2.80;;;17.00;99.90;;;;;;4966500;28;20076;-83
2022/10/07 12:49:48;;;;;;;19.87;3.40;;;17.00;99.90;;;;;;4957631;28;20050;-85
2022/10/07 12:52:36;;;;;;;15.23;2.63;;;17.20;99.90;;;;;;4968579;28;20407;-86
2022/10/07 12:55:06;;;;;;;14.60;2.42;;;17.20;99.90;;;;;;4971563;28;20142;-83
2022/10/07 12:57:37;;;;;;;19.02;3.05;;;17.20;99.90;;;;;;4997997;28;20093;-85
2022/10/07 13:00:06;;;;;;;22.40;3.08;;;17.20;99.90;;;;;;5074418;28;20116;-82
2022/10/07 13:03:02;;;;;;;24.52;2.97;;;17.30;99.90;;;;;;5078234;28;20052;-83
2022/10/07 13:06:05;;;;;;;13.55;2.50;;;17.30;99.90;;;;;;5090827;28;20096;-82
2022/10/07 13:08:49;;;;;;;15.30;2.80;;;17.20;99.90;;;;;;5081102;28;20040;-83
2022/10/07 13:11:32;;;;;;;19.23;2.78;;;17.20;99.90;;;;;;5064802;28;20086;-84
2022/10/07 13:14:04;;;;;;;14.30;2.60;;;17.20;99.90;;;;;;5062568;28;20052;-83
2022/10/07 13:17:05;;;;;;;12.32;2.38;;;17.10;99.90;;;;;;5054603;28;20094;-83
2022/10/07 13:19:52;;;;;;;13.30;2.47;;;17.20;99.90;;;;;;5069393;28;20059;-83
2022/10/07 13:22:20;;;;;;;16.92;2.95;;;17.10;99.90;;;;;;5051800;28;20067;-84
2022/10/07 13:24:52;;;;;;;11.88;2.53;;;17.10;99.90;;;;;;5073720;28;20486;-84
2022/10/07 13:27:24;;;;;;;16.75;3.08;;;17.10;99.90;;;;;;5061557;28;20083;-83
2022/10/07 13:29:50;;;;;;;12.02;2.90;;;17.10;99.90;;;;;;5057513;28;20190;-86